sensor_id;sensor_type;location;lat;lon;timestamp;temperature;humidity
55211;DHT22;41082;52.822;6.666;2023-12-20T00:00:05;5.70;99.90
55211;DHT22;41082;52.822;6.666;2023-12-20T00:02:31;5.70;99.90
55211;DHT22;41082;52.822;6.666;2023-12-20T00:04:57;5.80;99.90
55211;DHT22;41082;52.822;6.666;2023-12-20T00:07:22;5.80;99.90
55211;DHT22;41082;52.822;6.666;2023-12-20T00:09:48;5.80;99.90
55211;DHT22;41082;52.822;6.666;2023-12-20T00:12:13;5.90;99.90
55211;DHT22;41082;52.822;6.666;2023-12-20T00:14:39;5.90;99.90
55211;DHT22;41082;52.822;6.666;2023-12-20T00:17:05;5.80;99.90
55211;DHT22;41082;52.822;6.666;2023-12-20T00:19:30;5.90;99.90
55211;DHT22;41082;52.822;6.666;2023-12-20T00:21:56;5.90;99.90
55211;DHT22;41082;52.822;6.666;2023-12-20T00:24:21;5.80;99.90
55211;DHT22;41082;52.822;6.666;2023-12-20T00:26:47;5.80;99.90
55211;DHT22;41082;52.822;6.666;2023-12-20T00:29:12;5.80;99.90
55211;DHT22;41082;52.822;6.666;2023-12-20T00:31:38;5.70;99.90
55211;DHT22;41082;52.822;6.666;2023-12-20T00:34:04;5.60;99.90
55211;DHT22;41082;52.822;6.666;2023-12-20T00:36:29;5.60;99.90
55211;DHT22;41082;52.822;6.666;2023-12-20T00:38:55;5.60;99.90
55211;DHT22;41082;52.822;6.666;2023-12-20T00:41:20;5.60;99.90
55211;DHT22;41082;52.822;6.666;2023-12-20T00:43:46;5.60;99.90
55211;DHT22;41082;52.822;6.666;2023-12-20T00:46:12;5.60;99.90
55211;DHT22;41082;52.822;6.666;2023-12-20T00:48:37;5.60;99.90
55211;DHT22;41082;52.822;6.666;2023-12-20T00:51:03;5.60;99.90
55211;DHT22;41082;52.822;6.666;2023-12-20T00:53:29;5.60;99.90
55211;DHT22;41082;52.822;6.666;2023-12-20T00:55:55;5.60;99.90
55211;DHT22;41082;52.822;6.666;2023-12-20T00:58:20;5.70;99.90
55211;DHT22;41082;52.822;6.666;2023-12-20T01:00:46;5.60;99.90
55211;DHT22;41082;52.822;6.666;2023-12-20T01:03:12;5.60;99.90
55211;DHT22;41082;52.822;6.666;2023-12-20T01:05:37;5.60;99.90
55211;DHT22;41082;52.822;6.666;2023-12-20T01:08:04;5.60;99.90
55211;DHT22;41082;52.822;6.666;2023-12-20T01:10:30;5.60;99.90
55211;DHT22;41082;52.822;6.666;2023-12-20T01:12:55;5.60;99.90
55211;DHT22;41082;52.822;6.666;2023-12-20T01:15:21;5.60;99.90
55211;DHT22;41082;52.822;6.666;2023-12-20T01:17:46;5.60;99.90
55211;DHT22;41082;52.822;6.666;2023-12-20T01:20:13;5.60;99.90
55211;DHT22;41082;52.822;6.666;2023-12-20T01:22:39;5.50;99.90
55211;DHT22;41082;52.822;6.666;2023-12-20T01:25:04;5.50;99.90
55211;DHT22;41082;52.822;6.666;2023-12-20T01:27:30;5.60;99.90
55211;DHT22;41082;52.822;6.666;2023-12-20T01:29:56;5.50;99.90
55211;DHT22;41082;52.822;6.666;2023-12-20T01:32:22;5.50;99.90
55211;DHT22;41082;52.822;6.666;2023-12-20T01:34:48;5.50;99.90
55211;DHT22;41082;52.822;6.666;2023-12-20T01:37:14;5.50;99.90
55211;DHT22;41082;52.822;6.666;2023-12-20T01:39:39;5.50;99.90
55211;DHT22;41082;52.822;6.666;2023-12-20T01:42:05;5.60;99.90
55211;DHT22;41082;52.822;6.666;2023-12-20T01:44:31;5.50;99.90
55211;DHT22;41082;52.822;6.666;2023-12-20T01:46:56;5.50;99.90
55211;DHT22;41082;52.822;6.666;2023-12-20T01:49:22;5.50;99.90
55211;DHT22;41082;52.822;6.666;2023-12-20T01:51:49;5.50;99.90
55211;DHT22;41082;52.822;6.666;2023-12-20T01:54:15;5.50;99.90
55211;DHT22;41082;52.822;6.666;2023-12-20T01:56:42;5.50;99.90
55211;DHT22;41082;52.822;6.666;2023-12-20T01:59:08;5.60;99.90
55211;DHT22;41082;52.822;6.666;2023-12-20T02:01:35;5.50;99.90
55211;DHT22;41082;52.822;6.666;2023-12-20T02:04:01;5.60;99.90
55211;DHT22;41082;52.822;6.666;2023-12-20T02:06:30;5.50;99.90
55211;DHT22;41082;52.822;6.666;2023-12-20T02:08:57;5.60;99.90
55211;DHT22;41082;52.822;6.666;2023-12-20T02:11:24;5.60;99.90
55211;DHT22;41082;52.822;6.666;2023-12-20T02:13:50;5.70;99.90
55211;DHT22;41082;52.822;6.666;2023-12-20T02:16:16;5.70;99.90
55211;DHT22;41082;52.822;6.666;2023-12-20T02:18:43;5.80;99.90
55211;DHT22;41082;52.822;6.666;2023-12-20T02:21:10;5.80;99.90
55211;DHT22;41082;52.822;6.666;2023-12-20T02:23:35;5.80;99.90
55211;DHT22;41082;52.822;6.666;2023-12-20T02:26:02;5.80;99.90
55211;DHT22;41082;52.822;6.666;2023-12-20T02:28:28;5.90;99.90
55211;DHT22;41082;52.822;6.666;2023-12-20T02:30:53;6.00;99.90
55211;DHT22;41082;52.822;6.666;2023-12-20T02:33:19;5.90;99.90
55211;DHT22;41082;52.822;6.666;2023-12-20T02:35:44;6.00;99.90
55211;DHT22;41082;52.822;6.666;2023-12-20T02:38:10;5.90;99.90
55211;DHT22;41082;52.822;6.666;2023-12-20T02:40:36;6.00;99.90
55211;DHT22;41082;52.822;6.666;2023-12-20T02:43:02;5.90;99.90
55211;DHT22;41082;52.822;6.666;2023-12-20T02:45:27;5.90;99.90
55211;DHT22;41082;52.822;6.666;2023-12-20T02:47:53;5.90;99.90
55211;DHT22;41082;52.822;6.666;2023-12-20T02:50:18;5.90;99.90
55211;DHT22;41082;52.822;6.666;2023-12-20T02:52:47;5.90;99.90
55211;DHT22;41082;52.822;6.666;2023-12-20T02:55:13;5.90;99.90
55211;DHT22;41082;52.822;6.666;2023-12-20T02:57:38;6.00;99.90
55211;DHT22;41082;52.822;6.666;2023-12-20T03:00:08;6.00;99.90
55211;DHT22;41082;52.822;6.666;2023-12-20T03:02:34;6.00;99.90
55211;DHT22;41082;52.822;6.666;2023-12-20T03:05:00;6.00;99.90
55211;DHT22;41082;52.822;6.666;2023-12-20T03:07:26;6.10;99.90
55211;DHT22;41082;52.822;6.666;2023-12-20T03:09:51;6.00;99.90
55211;DHT22;41082;52.822;6.666;2023-12-20T03:12:17;6.10;99.90
55211;DHT22;41082;52.822;6.666;2023-12-20T03:14:44;6.10;99.90
55211;DHT22;41082;52.822;6.666;2023-12-20T03:17:10;6.10;99.90
55211;DHT22;41082;52.822;6.666;2023-12-20T03:19:35;6.10;99.90
55211;DHT22;41082;52.822;6.666;2023-12-20T03:22:01;6.20;99.90
55211;DHT22;41082;52.822;6.666;2023-12-20T03:24:27;6.10;99.90
55211;DHT22;41082;52.822;6.666;2023-12-20T03:26:53;6.10;99.90
55211;DHT22;41082;52.822;6.666;2023-12-20T03:29:18;6.10;99.90
55211;DHT22;41082;52.822;6.666;2023-12-20T03:31:44;6.10;99.90
55211;DHT22;41082;52.822;6.666;2023-12-20T03:34:11;6.10;99.90
55211;DHT22;41082;52.822;6.666;2023-12-20T03:36:37;6.10;99.90
55211;DHT22;41082;52.822;6.666;2023-12-20T03:39:02;6.10;99.90
55211;DHT22;41082;52.822;6.666;2023-12-20T03:41:28;6.10;99.90
55211;DHT22;41082;52.822;6.666;2023-12-20T03:43:54;6.00;99.90
55211;DHT22;41082;52.822;6.666;2023-12-20T03:46:19;6.00;99.90
55211;DHT22;41082;52.822;6.666;2023-12-20T03:48:45;6.00;99.90
55211;DHT22;41082;52.822;6.666;2023-12-20T03:51:11;6.10;99.90
55211;DHT22;41082;52.822;6.666;2023-12-20T03:53:36;6.10;99.90
55211;DHT22;41082;52.822;6.666;2023-12-20T03:56:02;6.10;99.90
55211;DHT22;41082;52.822;6.666;2023-12-20T03:58:28;6.00;99.90
55211;DHT22;41082;52.822;6.666;2023-12-20T04:00:53;6.10;99.90
55211;DHT22;41082;52.822;6.666;2023-12-20T04:03:19;6.00;99.90
55211;DHT22;41082;52.822;6.666;2023-12-20T04:05:45;6.10;99.90
55211;DHT22;41082;52.822;6.666;2023-12-20T04:08:11;6.10;99.90
55211;DHT22;41082;52.822;6.666;2023-12-20T04:10:36;6.10;99.90
55211;DHT22;41082;52.822;6.666;2023-12-20T04:13:03;6.10;99.90
55211;DHT22;41082;52.822;6.666;2023-12-20T04:15:29;6.10;99.90
55211;DHT22;41082;52.822;6.666;2023-12-20T04:17:54;6.10;99.90
55211;DHT22;41082;52.822;6.666;2023-12-20T04:20:20;6.20;99.90
55211;DHT22;41082;52.822;6.666;2023-12-20T04:22:45;6.20;99.90
55211;DHT22;41082;52.822;6.666;2023-12-20T04:25:11;6.20;99.90
55211;DHT22;41082;52.822;6.666;2023-12-20T04:27:37;6.20;99.90
55211;DHT22;41082;52.822;6.666;2023-12-20T04:30:03;6.30;99.90
55211;DHT22;41082;52.822;6.666;2023-12-20T04:32:29;6.30;99.90
55211;DHT22;41082;52.822;6.666;2023-12-20T04:34:54;6.30;99.90
55211;DHT22;41082;52.822;6.666;2023-12-20T04:37:20;6.30;99.90
55211;DHT22;41082;52.822;6.666;2023-12-20T04:39:46;6.40;99.90
55211;DHT22;41082;52.822;6.666;2023-12-20T04:42:11;6.40;99.90
55211;DHT22;41082;52.822;6.666;2023-12-20T04:44:37;6.40;99.90
55211;DHT22;41082;52.822;6.666;2023-12-20T04:47:02;6.40;99.90
55211;DHT22;41082;52.822;6.666;2023-12-20T04:49:28;6.40;99.90
55211;DHT22;41082;52.822;6.666;2023-12-20T04:51:54;6.30;99.90
55211;DHT22;41082;52.822;6.666;2023-12-20T04:54:19;6.40;99.90
55211;DHT22;41082;52.822;6.666;2023-12-20T04:56:45;6.40;99.90
55211;DHT22;41082;52.822;6.666;2023-12-20T04:59:11;6.40;99.90
55211;DHT22;41082;52.822;6.666;2023-12-20T05:01:36;6.40;99.90
55211;DHT22;41082;52.822;6.666;2023-12-20T05:04:02;6.40;99.90
55211;DHT22;41082;52.822;6.666;2023-12-20T05:06:27;6.40;99.90
55211;DHT22;41082;52.822;6.666;2023-12-20T05:08:53;6.50;99.90
55211;DHT22;41082;52.822;6.666;2023-12-20T05:11:19;6.50;99.90
55211;DHT22;41082;52.822;6.666;2023-12-20T05:13:44;6.50;99.90
55211;DHT22;41082;52.822;6.666;2023-12-20T05:16:10;6.50;99.90
55211;DHT22;41082;52.822;6.666;2023-12-20T05:18:35;6.50;99.90
55211;DHT22;41082;52.822;6.666;2023-12-20T05:21:01;6.60;99.90
55211;DHT22;41082;52.822;6.666;2023-12-20T05:23:27;6.50;99.90
55211;DHT22;41082;52.822;6.666;2023-12-20T05:25:52;6.60;99.90
55211;DHT22;41082;52.822;6.666;2023-12-20T05:28:18;6.60;99.90
55211;DHT22;41082;52.822;6.666;2023-12-20T05:30:43;6.60;99.90
55211;DHT22;41082;52.822;6.666;2023-12-20T05:33:09;6.60;99.90
55211;DHT22;41082;52.822;6.666;2023-12-20T05:35:35;6.60;99.90
55211;DHT22;41082;52.822;6.666;2023-12-20T05:38:00;6.60;99.90
55211;DHT22;41082;52.822;6.666;2023-12-20T05:40:26;6.60;99.90
55211;DHT22;41082;52.822;6.666;2023-12-20T05:42:51;6.60;99.90
55211;DHT22;41082;52.822;6.666;2023-12-20T05:45:17;6.60;99.90
55211;DHT22;41082;52.822;6.666;2023-12-20T05:47:43;6.60;99.90
55211;DHT22;41082;52.822;6.666;2023-12-20T05:50:08;6.70;99.90
55211;DHT22;41082;52.822;6.666;2023-12-20T05:52:34;6.70;99.90
55211;DHT22;41082;52.822;6.666;2023-12-20T05:55:00;6.70;99.90
55211;DHT22;41082;52.822;6.666;2023-12-20T05:57:28;6.80;99.90
55211;DHT22;41082;52.822;6.666;2023-12-20T05:59:54;6.80;99.90
55211;DHT22;41082;52.822;6.666;2023-12-20T06:02:20;6.80;99.90
55211;DHT22;41082;52.822;6.666;2023-12-20T06:04:45;6.80;99.90
55211;DHT22;41082;52.822;6.666;2023-12-20T06:07:12;6.80;99.90
55211;DHT22;41082;52.822;6.666;2023-12-20T06:09:37;6.80;99.90
55211;DHT22;41082;52.822;6.666;2023-12-20T06:12:03;6.80;99.90
55211;DHT22;41082;52.822;6.666;2023-12-20T06:14:29;6.80;99.90
55211;DHT22;41082;52.822;6.666;2023-12-20T06:16:56;6.80;99.90
55211;DHT22;41082;52.822;6.666;2023-12-20T06:19:22;6.90;99.90
55211;DHT22;41082;52.822;6.666;2023-12-20T06:21:48;6.90;99.90
55211;DHT22;41082;52.822;6.666;2023-12-20T06:24:13;6.90;99.90
55211;DHT22;41082;52.822;6.666;2023-12-20T06:26:39;6.90;99.90
55211;DHT22;41082;52.822;6.666;2023-12-20T06:29:05;6.90;99.90
55211;DHT22;41082;52.822;6.666;2023-12-20T06:31:31;7.00;99.90
55211;DHT22;41082;52.822;6.666;2023-12-20T06:33:58;7.00;99.90
55211;DHT22;41082;52.822;6.666;2023-12-20T06:36:25;7.00;99.90
55211;DHT22;41082;52.822;6.666;2023-12-20T06:38:51;7.00;99.90
55211;DHT22;41082;52.822;6.666;2023-12-20T06:41:17;7.00;99.90
55211;DHT22;41082;52.822;6.666;2023-12-20T06:43:43;7.00;99.90
55211;DHT22;41082;52.822;6.666;2023-12-20T06:46:08;7.00;99.90
55211;DHT22;41082;52.822;6.666;2023-12-20T06:48:35;7.10;99.90
55211;DHT22;41082;52.822;6.666;2023-12-20T06:51:01;7.00;99.90
55211;DHT22;41082;52.822;6.666;2023-12-20T06:53:29;7.10;99.90
55211;DHT22;41082;52.822;6.666;2023-12-20T06:55:55;7.00;99.90
55211;DHT22;41082;52.822;6.666;2023-12-20T06:58:22;7.10;99.90
55211;DHT22;41082;52.822;6.666;2023-12-20T07:00:47;7.00;99.90
55211;DHT22;41082;52.822;6.666;2023-12-20T07:03:13;7.00;99.90
55211;DHT22;41082;52.822;6.666;2023-12-20T07:05:39;7.10;99.90
55211;DHT22;41082;52.822;6.666;2023-12-20T07:08:05;7.10;99.90
55211;DHT22;41082;52.822;6.666;2023-12-20T07:10:30;7.10;99.90
55211;DHT22;41082;52.822;6.666;2023-12-20T07:12:56;7.10;99.90
55211;DHT22;41082;52.822;6.666;2023-12-20T07:15:22;7.10;99.90
55211;DHT22;41082;52.822;6.666;2023-12-20T07:17:47;7.10;99.90
55211;DHT22;41082;52.822;6.666;2023-12-20T07:20:13;7.10;99.90
55211;DHT22;41082;52.822;6.666;2023-12-20T07:22:39;7.10;99.90
55211;DHT22;41082;52.822;6.666;2023-12-20T07:25:05;7.10;99.90
55211;DHT22;41082;52.822;6.666;2023-12-20T07:27:30;7.20;99.90
55211;DHT22;41082;52.822;6.666;2023-12-20T07:29:56;7.10;99.90
55211;DHT22;41082;52.822;6.666;2023-12-20T07:32:22;7.10;99.90
55211;DHT22;41082;52.822;6.666;2023-12-20T07:34:48;7.10;99.90
55211;DHT22;41082;52.822;6.666;2023-12-20T07:37:13;7.30;99.90
55211;DHT22;41082;52.822;6.666;2023-12-20T07:39:39;7.20;99.90
55211;DHT22;41082;52.822;6.666;2023-12-20T07:42:06;7.20;99.90
55211;DHT22;41082;52.822;6.666;2023-12-20T07:44:32;7.20;99.90
55211;DHT22;41082;52.822;6.666;2023-12-20T07:46:58;7.20;99.90
55211;DHT22;41082;52.822;6.666;2023-12-20T07:49:24;7.20;99.90
55211;DHT22;41082;52.822;6.666;2023-12-20T07:51:49;7.20;99.90
55211;DHT22;41082;52.822;6.666;2023-12-20T07:54:15;7.30;99.90
55211;DHT22;41082;52.822;6.666;2023-12-20T07:56:41;7.30;99.90
55211;DHT22;41082;52.822;6.666;2023-12-20T07:59:07;7.30;99.90
55211;DHT22;41082;52.822;6.666;2023-12-20T08:01:32;7.30;99.90
55211;DHT22;41082;52.822;6.666;2023-12-20T08:03:58;7.30;99.90
55211;DHT22;41082;52.822;6.666;2023-12-20T08:06:24;7.40;99.90
55211;DHT22;41082;52.822;6.666;2023-12-20T08:08:49;7.40;99.90
55211;DHT22;41082;52.822;6.666;2023-12-20T08:11:15;7.40;99.90
55211;DHT22;41082;52.822;6.666;2023-12-20T08:13:41;7.40;99.90
55211;DHT22;41082;52.822;6.666;2023-12-20T08:16:06;7.50;99.90
55211;DHT22;41082;52.822;6.666;2023-12-20T08:18:32;7.50;99.90
55211;DHT22;41082;52.822;6.666;2023-12-20T08:20:58;7.50;99.90
55211;DHT22;41082;52.822;6.666;2023-12-20T08:23:23;7.50;99.90
55211;DHT22;41082;52.822;6.666;2023-12-20T08:25:49;7.60;99.90
55211;DHT22;41082;52.822;6.666;2023-12-20T08:28:15;7.60;99.90
55211;DHT22;41082;52.822;6.666;2023-12-20T08:30:41;7.60;99.90
55211;DHT22;41082;52.822;6.666;2023-12-20T08:33:06;7.60;99.90
55211;DHT22;41082;52.822;6.666;2023-12-20T08:35:36;7.60;99.90
55211;DHT22;41082;52.822;6.666;2023-12-20T08:38:02;7.70;99.90
55211;DHT22;41082;52.822;6.666;2023-12-20T08:40:29;7.70;99.90
55211;DHT22;41082;52.822;6.666;2023-12-20T08:42:55;7.70;99.90
55211;DHT22;41082;52.822;6.666;2023-12-20T08:45:21;7.70;99.90
55211;DHT22;41082;52.822;6.666;2023-12-20T08:47:46;7.80;99.90
55211;DHT22;41082;52.822;6.666;2023-12-20T08:50:12;7.80;99.90
55211;DHT22;41082;52.822;6.666;2023-12-20T08:52:38;7.80;99.90
55211;DHT22;41082;52.822;6.666;2023-12-20T08:55:04;7.80;99.90
55211;DHT22;41082;52.822;6.666;2023-12-20T08:57:29;7.80;99.90
55211;DHT22;41082;52.822;6.666;2023-12-20T08:59:57;7.80;99.90
55211;DHT22;41082;52.822;6.666;2023-12-20T09:02:23;7.80;99.90
55211;DHT22;41082;52.822;6.666;2023-12-20T09:04:48;7.80;99.90
55211;DHT22;41082;52.822;6.666;2023-12-20T09:07:26;7.90;99.90
55211;DHT22;41082;52.822;6.666;2023-12-20T09:09:53;7.90;99.90
55211;DHT22;41082;52.822;6.666;2023-12-20T09:12:21;7.90;99.90
55211;DHT22;41082;52.822;6.666;2023-12-20T09:14:49;7.90;99.90
55211;DHT22;41082;52.822;6.666;2023-12-20T09:17:15;8.00;99.90
55211;DHT22;41082;52.822;6.666;2023-12-20T09:19:42;7.90;99.90
55211;DHT22;41082;52.822;6.666;2023-12-20T09:22:09;8.00;99.90
55211;DHT22;41082;52.822;6.666;2023-12-20T09:24:35;8.00;99.90
55211;DHT22;41082;52.822;6.666;2023-12-20T09:27:01;8.00;99.90
55211;DHT22;41082;52.822;6.666;2023-12-20T09:29:26;8.00;99.90
55211;DHT22;41082;52.822;6.666;2023-12-20T09:31:52;8.00;99.90
55211;DHT22;41082;52.822;6.666;2023-12-20T09:34:18;8.00;99.90
55211;DHT22;41082;52.822;6.666;2023-12-20T09:36:43;8.00;99.90
55211;DHT22;41082;52.822;6.666;2023-12-20T09:39:16;8.00;99.90
55211;DHT22;41082;52.822;6.666;2023-12-20T09:42:01;8.10;99.90
55211;DHT22;41082;52.822;6.666;2023-12-20T09:44:28;8.10;99.90
55211;DHT22;41082;52.822;6.666;2023-12-20T09:46:55;8.10;99.90
55211;DHT22;41082;52.822;6.666;2023-12-20T09:49:21;8.10;99.90
55211;DHT22;41082;52.822;6.666;2023-12-20T09:51:47;8.20;99.90
55211;DHT22;41082;52.822;6.666;2023-12-20T09:54:23;8.20;99.90
55211;DHT22;41082;52.822;6.666;2023-12-20T09:56:49;8.00;99.90
55211;DHT22;41082;52.822;6.666;2023-12-20T09:59:15;7.80;99.90
55211;DHT22;41082;52.822;6.666;2023-12-20T10:01:41;7.60;99.90
55211;DHT22;41082;52.822;6.666;2023-12-20T10:04:08;7.40;99.90
55211;DHT22;41082;52.822;6.666;2023-12-20T10:06:52;7.20;99.90
55211;DHT22;41082;52.822;6.666;2023-12-20T10:09:18;7.00;99.90
55211;DHT22;41082;52.822;6.666;2023-12-20T10:11:43;7.00;99.90
55211;DHT22;41082;52.822;6.666;2023-12-20T10:14:10;7.00;99.90
55211;DHT22;41082;52.822;6.666;2023-12-20T10:16:36;6.90;99.90
55211;DHT22;41082;52.822;6.666;2023-12-20T10:19:02;6.80;99.90
55211;DHT22;41082;52.822;6.666;2023-12-20T10:21:27;6.80;99.90
55211;DHT22;41082;52.822;6.666;2023-12-20T10:23:57;6.80;99.90
55211;DHT22;41082;52.822;6.666;2023-12-20T10:26:24;6.70;99.90
55211;DHT22;41082;52.822;6.666;2023-12-20T10:28:54;6.80;99.90
55211;DHT22;41082;52.822;6.666;2023-12-20T10:31:35;6.70;99.90
55211;DHT22;41082;52.822;6.666;2023-12-20T10:34:02;6.80;99.90
55211;DHT22;41082;52.822;6.666;2023-12-20T10:36:32;6.70;99.90
55211;DHT22;41082;52.822;6.666;2023-12-20T10:38:59;6.70;99.90
55211;DHT22;41082;52.822;6.666;2023-12-20T10:41:26;6.70;99.90
55211;DHT22;41082;52.822;6.666;2023-12-20T10:44:01;6.70;99.90
55211;DHT22;41082;52.822;6.666;2023-12-20T10:46:28;6.70;99.90
55211;DHT22;41082;52.822;6.666;2023-12-20T10:48:58;6.70;99.90
55211;DHT22;41082;52.822;6.666;2023-12-20T10:51:25;6.70;99.90
55211;DHT22;41082;52.822;6.666;2023-12-20T10:53:55;6.70;99.90
55211;DHT22;41082;52.822;6.666;2023-12-20T10:56:21;6.70;99.90
55211;DHT22;41082;52.822;6.666;2023-12-20T10:58:49;6.70;99.90
55211;DHT22;41082;52.822;6.666;2023-12-20T11:01:16;6.70;99.90
55211;DHT22;41082;52.822;6.666;2023-12-20T11:03:51;6.70;99.90
55211;DHT22;41082;52.822;6.666;2023-12-20T11:06:33;6.80;99.90
55211;DHT22;41082;52.822;6.666;2023-12-20T11:09:06;6.70;99.90
55211;DHT22;41082;52.822;6.666;2023-12-20T11:14:55;6.80;99.90
55211;DHT22;41082;52.822;6.666;2023-12-20T11:17:23;6.80;99.90
55211;DHT22;41082;52.822;6.666;2023-12-20T11:22:22;6.80;99.90
55211;DHT22;41082;52.822;6.666;2023-12-20T11:24:48;6.80;99.90
55211;DHT22;41082;52.822;6.666;2023-12-20T11:27:14;6.80;99.90
55211;DHT22;41082;52.822;6.666;2023-12-20T11:29:41;6.90;99.90
55211;DHT22;41082;52.822;6.666;2023-12-20T11:34:58;7.00;99.90
55211;DHT22;41082;52.822;6.666;2023-12-20T11:37:29;7.00;99.90
55211;DHT22;41082;52.822;6.666;2023-12-20T11:40:05;7.10;99.90
55211;DHT22;41082;52.822;6.666;2023-12-20T11:42:50;7.10;99.90
55211;DHT22;41082;52.822;6.666;2023-12-20T11:45:21;7.10;99.90
55211;DHT22;41082;52.822;6.666;2023-12-20T11:47:48;7.20;99.90
55211;DHT22;41082;52.822;6.666;2023-12-20T11:50:18;7.10;99.90
55211;DHT22;41082;52.822;6.666;2023-12-20T11:52:44;7.20;99.90
55211;DHT22;41082;52.822;6.666;2023-12-20T11:55:10;7.20;99.90
55211;DHT22;41082;52.822;6.666;2023-12-20T11:57:36;7.20;99.90
55211;DHT22;41082;52.822;6.666;2023-12-20T12:00:03;7.20;99.90
55211;DHT22;41082;52.822;6.666;2023-12-20T12:02:29;7.20;99.90
55211;DHT22;41082;52.822;6.666;2023-12-20T12:04:56;7.20;99.90
55211;DHT22;41082;52.822;6.666;2023-12-20T12:07:24;7.20;99.90
55211;DHT22;41082;52.822;6.666;2023-12-20T12:09:49;7.20;99.90
55211;DHT22;41082;52.822;6.666;2023-12-20T12:12:16;7.20;99.90
55211;DHT22;41082;52.822;6.666;2023-12-20T12:14:41;7.20;99.90
55211;DHT22;41082;52.822;6.666;2023-12-20T12:17:14;7.30;99.90
55211;DHT22;41082;52.822;6.666;2023-12-20T12:19:41;7.30;99.90
55211;DHT22;41082;52.822;6.666;2023-12-20T12:22:08;7.30;99.90
55211;DHT22;41082;52.822;6.666;2023-12-20T12:24:36;7.30;99.90
55211;DHT22;41082;52.822;6.666;2023-12-20T12:27:03;7.40;99.90
55211;DHT22;41082;52.822;6.666;2023-12-20T12:29:28;7.40;99.90
55211;DHT22;41082;52.822;6.666;2023-12-20T12:31:55;7.40;99.90
55211;DHT22;41082;52.822;6.666;2023-12-20T12:34:20;7.40;99.90
55211;DHT22;41082;52.822;6.666;2023-12-20T12:36:46;7.30;99.90
55211;DHT22;41082;52.822;6.666;2023-12-20T12:39:16;7.30;99.90
55211;DHT22;41082;52.822;6.666;2023-12-20T12:41:43;7.30;99.90
55211;DHT22;41082;52.822;6.666;2023-12-20T12:44:08;7.30;99.90
55211;DHT22;41082;52.822;6.666;2023-12-20T12:46:34;7.30;99.90
55211;DHT22;41082;52.822;6.666;2023-12-20T12:49:00;7.30;99.90
55211;DHT22;41082;52.822;6.666;2023-12-20T12:51:25;7.20;99.90
55211;DHT22;41082;52.822;6.666;2023-12-20T12:53:53;7.20;99.90
55211;DHT22;41082;52.822;6.666;2023-12-20T12:56:19;7.20;99.90
55211;DHT22;41082;52.822;6.666;2023-12-20T12:58:45;7.20;99.90
55211;DHT22;41082;52.822;6.666;2023-12-20T13:01:10;7.10;99.90
55211;DHT22;41082;52.822;6.666;2023-12-20T13:03:36;7.10;99.90
55211;DHT22;41082;52.822;6.666;2023-12-20T13:06:03;7.00;99.90
55211;DHT22;41082;52.822;6.666;2023-12-20T13:08:29;7.00;99.90
55211;DHT22;41082;52.822;6.666;2023-12-20T13:10:55;6.90;99.90
55211;DHT22;41082;52.822;6.666;2023-12-20T13:13:22;6.90;99.90
55211;DHT22;41082;52.822;6.666;2023-12-20T13:15:48;6.80;99.90
55211;DHT22;41082;52.822;6.666;2023-12-20T13:18:18;6.80;99.90
55211;DHT22;41082;52.822;6.666;2023-12-20T13:20:44;6.70;99.90
55211;DHT22;41082;52.822;6.666;2023-12-20T13:23:10;6.70;99.90
55211;DHT22;41082;52.822;6.666;2023-12-20T13:25:36;6.60;99.90
55211;DHT22;41082;52.822;6.666;2023-12-20T13:28:01;6.60;99.90
55211;DHT22;41082;52.822;6.666;2023-12-20T13:30:29;6.60;99.90
55211;DHT22;41082;52.822;6.666;2023-12-20T13:32:55;6.50;99.90
55211;DHT22;41082;52.822;6.666;2023-12-20T13:35:20;6.50;99.90
55211;DHT22;41082;52.822;6.666;2023-12-20T13:37:46;6.50;99.90
55211;DHT22;41082;52.822;6.666;2023-12-20T13:40:12;6.40;99.90
55211;DHT22;41082;52.822;6.666;2023-12-20T13:42:39;6.50;99.90
55211;DHT22;41082;52.822;6.666;2023-12-20T13:45:05;6.40;99.90
55211;DHT22;41082;52.822;6.666;2023-12-20T13:47:32;6.40;99.90
55211;DHT22;41082;52.822;6.666;2023-12-20T13:49:57;6.40;99.90
55211;DHT22;41082;52.822;6.666;2023-12-20T13:52:23;6.40;99.90
55211;DHT22;41082;52.822;6.666;2023-12-20T13:54:49;6.30;99.90
55211;DHT22;41082;52.822;6.666;2023-12-20T13:57:14;6.40;99.90
55211;DHT22;41082;52.822;6.666;2023-12-20T13:59:40;6.40;99.90
55211;DHT22;41082;52.822;6.666;2023-12-20T14:02:06;6.40;99.90
55211;DHT22;41082;52.822;6.666;2023-12-20T14:04:32;6.40;99.90
55211;DHT22;41082;52.822;6.666;2023-12-20T14:06:57;6.40;99.90
55211;DHT22;41082;52.822;6.666;2023-12-20T14:09:23;6.40;99.90
55211;DHT22;41082;52.822;6.666;2023-12-20T14:11:49;6.40;99.90
55211;DHT22;41082;52.822;6.666;2023-12-20T14:14:14;6.40;99.90
55211;DHT22;41082;52.822;6.666;2023-12-20T14:16:40;6.40;99.90
55211;DHT22;41082;52.822;6.666;2023-12-20T14:19:06;6.30;99.90
55211;DHT22;41082;52.822;6.666;2023-12-20T14:21:34;6.30;99.90
55211;DHT22;41082;52.822;6.666;2023-12-20T14:24:00;6.40;99.90
55211;DHT22;41082;52.822;6.666;2023-12-20T14:26:26;6.40;99.90
55211;DHT22;41082;52.822;6.666;2023-12-20T14:28:53;6.40;99.90
55211;DHT22;41082;52.822;6.666;2023-12-20T14:31:19;6.40;99.90
55211;DHT22;41082;52.822;6.666;2023-12-20T14:33:44;6.40;99.90
55211;DHT22;41082;52.822;6.666;2023-12-20T14:36:11;6.40;99.90
55211;DHT22;41082;52.822;6.666;2023-12-20T14:38:37;6.40;99.90
55211;DHT22;41082;52.822;6.666;2023-12-20T14:41:03;6.40;99.90
55211;DHT22;41082;52.822;6.666;2023-12-20T14:43:29;6.40;99.90
55211;DHT22;41082;52.822;6.666;2023-12-20T14:45:55;6.40;99.90
55211;DHT22;41082;52.822;6.666;2023-12-20T14:48:21;6.30;99.90
55211;DHT22;41082;52.822;6.666;2023-12-20T14:50:47;6.30;99.90
55211;DHT22;41082;52.822;6.666;2023-12-20T14:53:14;6.40;99.90
55211;DHT22;41082;52.822;6.666;2023-12-20T14:55:42;6.30;99.90
55211;DHT22;41082;52.822;6.666;2023-12-20T14:58:08;6.40;99.90
55211;DHT22;41082;52.822;6.666;2023-12-20T15:00:33;6.40;99.90
55211;DHT22;41082;52.822;6.666;2023-12-20T15:02:59;6.40;99.90
55211;DHT22;41082;52.822;6.666;2023-12-20T15:05:25;6.40;99.90
55211;DHT22;41082;52.822;6.666;2023-12-20T15:07:52;6.40;99.90
55211;DHT22;41082;52.822;6.666;2023-12-20T15:10:18;6.40;99.90
55211;DHT22;41082;52.822;6.666;2023-12-20T15:12:44;6.50;99.90
55211;DHT22;41082;52.822;6.666;2023-12-20T15:15:10;6.40;99.90
55211;DHT22;41082;52.822;6.666;2023-12-20T15:17:36;6.50;99.90
55211;DHT22;41082;52.822;6.666;2023-12-20T15:20:03;6.40;99.90
55211;DHT22;41082;52.822;6.666;2023-12-20T15:22:30;6.50;99.90
55211;DHT22;41082;52.822;6.666;2023-12-20T15:24:55;6.50;99.90
55211;DHT22;41082;52.822;6.666;2023-12-20T15:27:21;6.50;99.90
55211;DHT22;41082;52.822;6.666;2023-12-20T15:29:47;6.60;99.90
55211;DHT22;41082;52.822;6.666;2023-12-20T15:32:15;6.50;99.90
55211;DHT22;41082;52.822;6.666;2023-12-20T15:34:40;6.60;99.90
55211;DHT22;41082;52.822;6.666;2023-12-20T15:37:06;6.60;99.90
55211;DHT22;41082;52.822;6.666;2023-12-20T15:39:31;6.70;99.90
55211;DHT22;41082;52.822;6.666;2023-12-20T15:41:57;6.70;99.90
55211;DHT22;41082;52.822;6.666;2023-12-20T15:44:23;6.70;99.90
55211;DHT22;41082;52.822;6.666;2023-12-20T15:46:51;6.70;99.90